createdAt,value
2018-03-18T00:02:43.202Z,92664.66
2018-03-18T00:17:39.046Z,92672.64
2018-03-18T00:32:35.093Z,92705.08
2018-03-18T00:47:37.129Z,92671.52
2018-03-18T01:02:38.426Z,92692.94
2018-03-18T01:17:34.494Z,92612.55
2018-03-18T01:32:37.350Z,92640.78
2018-03-18T01:47:34.447Z,92618.05
2018-03-18T02:02:36.785Z,92622.41
2018-03-18T02:17:45.870Z,92608.39
2018-03-18T02:32:34.550Z,92561.58
2018-03-18T02:47:37.546Z,92563.45
2018-03-18T03:02:35.055Z,92534.42
2018-03-18T03:17:40.921Z,92529.31
2018-03-18T03:32:35.806Z,92482.70
2018-03-18T03:47:48.212Z,92487.80
2018-03-18T04:02:35.685Z,92499.91
2018-03-18T04:17:37.094Z,92582.20
2018-03-18T04:32:35.248Z,92555.28
2018-03-18T04:47:37.000Z,92563.83
2018-03-18T05:02:34.288Z,92585.45
2018-03-18T05:17:34.361Z,92558.16
2018-03-18T05:32:34.259Z,92585.45
2018-03-18T05:47:34.104Z,92562.52
2018-03-18T06:02:34.824Z,92603.42
2018-03-18T06:17:36.477Z,92644.15
2018-03-18T06:32:37.305Z,92689.06
2018-03-18T06:47:34.679Z,92797.04
2018-03-18T07:02:34.828Z,92836.05
2018-03-18T07:17:34.582Z,92854.27
2018-03-18T07:32:34.869Z,92865.17
2018-03-18T07:47:34.885Z,92894.99
2018-03-18T08:02:35.295Z,92892.06
2018-03-18T08:17:34.963Z,92856.58
2018-03-18T08:32:34.934Z,92882.12
2018-03-18T08:47:35.134Z,92876.49
2018-03-18T09:02:34.578Z,92863.35
2018-03-18T09:17:34.268Z,92836.20
2018-03-18T09:32:34.146Z,92841.76
2018-03-18T09:47:34.089Z,92849.05
2018-03-18T10:02:34.727Z,92899.21
2018-03-18T10:17:34.416Z,92906.91
2018-03-18T10:32:34.396Z,92913.67
2018-03-18T10:47:34.342Z,92928.77
2018-03-18T11:02:35.001Z,92971.08
2018-03-18T11:17:34.731Z,92969.75
2018-03-18T11:32:34.627Z,92975.11
2018-03-18T11:47:34.615Z,92958.66
2018-03-18T12:02:35.339Z,92965.33
2018-03-18T12:17:35.031Z,92983.28
2018-03-18T12:32:34.913Z,92981.95
2018-03-18T12:47:36.844Z,92991.30
2018-03-18T13:02:35.531Z,93001.19
2018-03-18T13:17:34.304Z,93040.70
2018-03-18T13:32:34.118Z,93062.08
2018-03-18T13:47:36.140Z,93094.39
2018-03-18T14:02:34.741Z,93114.41
2018-03-18T14:17:34.494Z,93095.56
2018-03-18T14:32:34.426Z,93104.19
2018-03-18T14:47:34.294Z,93124.83
2018-03-18T15:02:36.963Z,93112.38
2018-03-18T15:17:34.622Z,93123.06
2018-03-18T15:32:34.574Z,93151.52
2018-03-18T15:47:34.551Z,93155.02
2018-03-18T16:02:35.723Z,93188.14
2018-03-18T16:17:34.963Z,93207.95
2018-03-18T16:32:35.155Z,93203.31
2018-03-18T16:47:34.801Z,93223.52
2018-03-18T17:02:36.435Z,93237.78
2018-03-18T17:17:38.053Z,93257.98
2018-03-18T17:32:34.238Z,93265.27
2018-03-18T17:47:45.890Z,93288.48
2018-03-18T18:02:34.673Z,93303.67
2018-03-18T18:17:40.657Z,93300.29
2018-03-18T18:32:36.393Z,93318.10
2018-03-18T18:47:36.381Z,93342.97
2018-03-18T19:02:35.926Z,93363.64
2018-03-18T19:17:36.934Z,93355.23
2018-03-18T19:32:34.782Z,93357.25
2018-03-18T19:47:34.623Z,93367.02
2018-03-18T20:02:34.282Z,93381.70
2018-03-18T20:17:34.930Z,93396.68
2018-03-18T20:32:35.015Z,93390.41
2018-03-18T20:47:35.126Z,93425.43
2018-03-18T21:02:34.558Z,93414.46
2018-03-18T21:17:35.061Z,93411.86
2018-03-18T21:32:36.492Z,93404.31
2018-03-18T21:47:36.339Z,93412.98
2018-03-18T22:02:34.698Z,93421.94
2018-03-18T22:17:34.680Z,93429.33
2018-03-18T22:47:36.614Z,93400.22
2018-03-18T23:02:34.953Z,93383.36
2018-03-18T23:17:34.808Z,93400.48
2018-03-18T23:32:45.774Z,93404.53
2018-03-18T23:47:35.968Z,93386.51
